Create Tblcommutelog Verified Points Advance Search
| # | Trip ID | Id Commuter | Trip Date | Trip Num | Current Lat | Current Lng | Delta Distance | Current Time | Activity | Activity Confidence | Current Speed | |
|---|---|---|---|---|---|---|---|---|---|---|---|---|
| 71061 | 250821_781273_16648948_1706 | 781273 | (not set) | (not set) | 38.983522782572 | -77.094153951723 | 7.2313 | 2025-08-21 17:46:01 | on_foot | 100 | -0.44703925898772 | |
| 71062 | 250821_751043_16617307_1738 | 751043 | (not set) | (not set) | 38.911639541577 | -77.001018257472 | 0.49 | 2025-08-21 17:46:10 | on_bicycle | 100 | 2.405071213354 | |
| 71063 | 250821_782806_16650516_1639 | 782806 | (not set) | (not set) | 38.947050197063 | -77.336971479962 | 20.6979 | 2025-08-21 17:46:16 | in_vehicle | 100 | 13.938684095237 | |
| 71064 | 250821_782806_16650516_1639 | 782806 | (not set) | (not set) | 38.948343241084 | -77.340836922625 | 20.9244 | 2025-08-21 17:46:28 | in_vehicle | 100 | 13.205539710497 | |
| 71065 | 250821_786015_16654270_1628 | 786015 | (not set) | (not set) | 39.4755418 | -76.386852 | 41.1449 | 2025-08-21 17:46:25 | in_vehicle | 100 | 6.955930869849 | |
| 71066 | 250821_786927_16655345_1716 | 786927 | (not set) | (not set) | 39.291809422874 | -76.587390189617 | 18.0385 | 2025-08-21 17:46:44 | in_vehicle | 100 | 0 | |
| 71067 | 250821_782806_16650516_1639 | 782806 | (not set) | (not set) | 38.95084828812 | -77.348603167631 | 21.377 | 2025-08-21 17:46:52 | in_vehicle | 100 | 12.910493799565 | |
| 71068 | 250821_781975_16654380_1715 | 781975 | (not set) | (not set) | 38.728552399181 | -77.199904749558 | 17.6783 | 2025-08-21 17:46:58 | in_vehicle | 100 | 15.172512450043 | |
| 71069 | 250821_782806_16650516_1639 | 782806 | (not set) | (not set) | 38.951854653336 | -77.352564395039 | 21.6014 | 2025-08-21 17:47:04 | in_vehicle | 100 | 13.379885021503 | |
| 71070 | 250821_757722_16624176_1707 | 757722 | (not set) | (not set) | 38.880446665753 | -77.139928040111 | 4.0136 | 2025-08-21 17:39:35 | unknown | 100 | 12.213112555545 | |
| 71071 | 250821_758024_16624494_1723 | 758024 | (not set) | (not set) | 38.891959948706 | -77.016294084153 | 1.4676 | 2025-08-21 17:39:44 | on_bicycle | 100 | 3.6523107459297 | |
| 71072 | 250821_772509_16639785_1727 | 772509 | (not set) | (not set) | 38.831651166667 | -77.044440333333 | 5.438 | 2025-08-21 17:39:53 | in_vehicle | 100 | 3.4511430793852 | |
| 71073 | 250821_782806_16650516_1639 | 782806 | (not set) | (not set) | 38.933101028617 | -77.210167620708 | 13.4554 | 2025-08-21 17:40:02 | in_vehicle | 100 | 10.675297504627 | |
| 71074 | 250821_780745_16648422_1636 | 780745 | (not set) | (not set) | 39.086965759923 | -77.553260337667 | 37.9958 | 2025-08-21 17:40:11 | in_vehicle | 100 | 9.0480746019115 | |
| 71075 | 250821_785175_16653273_1733 | 785175 | (not set) | (not set) | 38.95526393306 | -76.969498171704 | 2.7429 | 2025-08-21 17:40:21 | in_vehicle | 100 | 2.3246041467362 | |
| 71076 | 250821_763853_16630707_1701 | 763853 | (not set) | (not set) | 38.9487085924 | -77.338848218451 | 16.7927 | 2025-08-21 17:40:30 | on_foot | 100 | 0.254812377623 | |
| 71077 | 250821_781273_16648948_1706 | 781273 | (not set) | (not set) | 38.95505971243 | -77.082917721025 | 4.603 | 2025-08-21 17:40:39 | in_vehicle | 100 | -0.44703925898772 | |
| 71078 | 250821_758024_16624494_1723 | 758024 | (not set) | (not set) | 38.892646838519 | -77.019346921522 | 1.6392 | 2025-08-21 17:40:46 | on_bicycle | 100 | 3.6478403533398 | |
| 71079 | 250821_781975_16654380_1715 | 781975 | (not set) | (not set) | 38.816618719314 | -77.135762189386 | 10.2682 | 2025-08-21 17:40:57 | in_vehicle | 100 | 14.636065339258 | |
| 71080 | 250821_786927_16655345_1716 | 786927 | (not set) | (not set) | 39.292587769928 | -76.573355265283 | 17.2798 | 2025-08-21 17:41:03 | in_vehicle | 100 | 0 |